Chiclayo, Peru
Current Conditions -  °F | °C
As of 5:00 PM on Thursday 27 Nov 2014 (Local Time) from SPHI Reporting Station
Clear Clear  
Wind Chill: 72°   Ceiling: Unl
Heat Index: 72°   Visibility: 6mi
Dew Point: 61°   Wind: 25mph
Humidity: 69%   Direction: 180°S
Pressure: 29.8"   Gusts: NA
Location:  6.76°S, 79.84°W
Report Text: SPHI 272200Z 18022KT CAVOK 22/16 Q1009 RMK PP000
Loading
Personal Weather Stations






























Interactive Weather Map New forecast layout! Learn more

10-Day Weather Forecast

Advertisements
Track Severe Weather on mobile